Terminal Aerodrome Forecast
Issued by NWS

Home | Current Version | Previous Version | Text Only | Print | Product List | Glossary On
Versions: 1 2 3 4 5 6 7 8 9 10 11 12 13 14 15 16 17 18 19 20 21
000
FTUS44 KMAF 011700
TAFCNM
TAF
KCNM 011731Z 0118/0218 14007KT P6SM BKN007
     FM012300 13006KT P6SM OVC010
     FM020700 10007KT 3SM BR OVC003=

USA.gov is the U.S. government's official web portal to all federal, state and local government web resources and services.